Time;durP1;ratioP1;P1;durP2;ratioP2;P2;SDS_P1;SDS_P2;PMS_P1;PMS_P2;Temp;Humidity;BMP_temperature;BMP_pressure;BME280_temperature;BME280_humidity;BME280_pressure;Samples;Min_cycle;Max_cycle;Signal;HPM_P1;HPM_P2
2023/12/09 00:00:48;;;;;;;19.50;10.17;;;;;;;6.38;100.00;101953.66;2091471;28;20222;-67
2023/12/09 00:01:49;;;;;;;15.77;9.90;;;;;;;6.34;100.00;101958.31;2088422;28;20520;-68
2023/12/09 00:02:49;;;;;;;20.95;9.98;;;;;;;6.33;100.00;101960.28;2088965;28;20195;-67
2023/12/09 00:03:50;;;;;;;18.93;10.37;;;;;;;6.37;100.00;101958.38;2090185;28;20193;-67
2023/12/09 00:04:51;;;;;;;18.23;9.47;;;;;;;6.41;100.00;101961.19;2096298;28;20183;-67
2023/12/09 00:05:51;;;;;;;18.30;10.30;;;;;;;6.32;100.00;101950.44;2089093;28;20185;-67
2023/12/09 00:06:52;;;;;;;19.77;11.23;;;;;;;6.43;100.00;101951.38;2095966;28;20223;-67
2023/12/09 00:07:52;;;;;;;21.13;10.80;;;;;;;6.44;100.00;101954.91;2096560;28;20671;-67
2023/12/09 00:08:53;;;;;;;20.10;10.20;;;;;;;6.46;100.00;101964.38;2094165;28;20630;-67
2023/12/09 00:09:53;;;;;;;18.07;10.17;;;;;;;6.40;100.00;101957.63;2096715;28;20205;-67
2023/12/09 00:10:54;;;;;;;19.10;9.83;;;;;;;6.37;100.00;101961.13;2093715;28;20182;-67
2023/12/09 00:11:54;;;;;;;21.93;10.37;;;;;;;6.38;100.00;101959.16;2089159;28;20187;-67
2023/12/09 00:12:55;;;;;;;19.57;10.13;;;;;;;6.32;100.00;101961.44;2088929;28;20174;-67
2023/12/09 00:13:56;;;;;;;16.77;9.97;;;;;;;6.35;100.00;101960.69;2088957;28;20187;-67
2023/12/09 00:14:56;;;;;;;18.40;10.27;;;;;;;6.44;100.00;101963.16;2088903;28;20188;-67
2023/12/09 00:15:57;;;;;;;20.07;11.17;;;;;;;6.49;100.00;101963.66;2094746;28;20470;-67
2023/12/09 00:16:57;;;;;;;18.23;9.77;;;;;;;6.49;100.00;101966.41;2092598;28;20210;-67
2023/12/09 00:17:58;;;;;;;16.70;9.47;;;;;;;6.49;100.00;101954.59;2088523;28;20185;-67
2023/12/09 00:18:59;;;;;;;18.67;9.93;;;;;;;6.27;100.00;101923.22;2088883;28;20265;-67
2023/12/09 00:19:59;;;;;;;18.53;9.70;;;;;;;6.56;100.00;101961.00;2092894;28;20266;-67
2023/12/09 00:21:00;;;;;;;19.93;11.07;;;;;;;6.13;100.00;101884.47;2089026;28;20436;-67
2023/12/09 00:22:00;;;;;;;20.80;10.07;;;;;;;6.50;100.00;101937.69;2096504;28;20617;-67
2023/12/09 00:23:01;;;;;;;21.43;10.87;;;;;;;6.68;100.00;101960.78;2090506;28;20199;-67
2023/12/09 00:24:01;;;;;;;17.87;9.53;;;;;;;6.71;100.00;101962.75;2088779;28;20251;-67
2023/12/09 00:25:03;;;;;;;16.77;9.77;;;;;;;6.70;100.00;101960.38;2088594;28;20248;-67
2023/12/09 00:26:04;;;;;;;18.83;9.33;;;;;;;6.71;100.00;101962.00;2088807;28;20190;-67
2023/12/09 00:27:04;;;;;;;17.37;9.60;;;;;;;6.73;100.00;101952.19;2088769;28;20430;-67
2023/12/09 00:28:05;;;;;;;17.80;9.60;;;;;;;6.68;100.00;101954.47;2088771;28;20228;-67
2023/12/09 00:29:05;;;;;;;20.00;10.03;;;;;;;6.57;100.00;101946.03;2097346;28;20191;-67
2023/12/09 00:30:07;;;;;;;17.40;9.90;;;;;;;6.03;100.00;101862.31;2104052;28;20536;-67
2023/12/09 00:31:08;;;;;;;17.70;9.63;;;;;;;6.73;100.00;101948.63;2093059;28;20277;-67
2023/12/09 00:32:08;;;;;;;19.30;9.57;;;;;;;6.33;100.00;101887.91;2087714;28;20476;-67
2023/12/09 00:33:09;;;;;;;16.57;9.37;;;;;;;6.77;100.00;101954.97;2095983;28;20284;-67
2023/12/09 00:34:10;;;;;;;13.73;8.40;;;;;;;6.76;100.00;101956.16;2102899;28;20176;-67
2023/12/09 00:35:11;;;;;;;17.83;9.33;;;;;;;6.81;100.00;101948.34;2097920;28;20464;-67
2023/12/09 00:36:11;;;;;;;17.17;9.13;;;;;;;6.83;100.00;101951.50;2099001;28;20179;-67
2023/12/09 00:37:11;;;;;;;20.93;10.17;;;;;;;6.88;100.00;101958.66;2098876;28;20659;-67
2023/12/09 00:38:12;;;;;;;17.37;8.87;;;;;;;6.68;100.00;101919.47;2091826;28;20192;-67
2023/12/09 00:39:13;;;;;;;17.87;9.47;;;;;;;6.95;100.00;101958.72;2095676;28;20210;-67
2023/12/09 00:40:13;;;;;;;18.07;9.97;;;;;;;6.95;100.00;101953.22;2097793;28;20201;-67
2023/12/09 00:41:14;;;;;;;20.00;10.17;;;;;;;6.99;100.00;101957.63;2095612;28;20551;-67
2023/12/09 00:42:14;;;;;;;20.20;9.63;;;;;;;7.00;100.00;101961.16;2090066;28;20502;-67
2023/12/09 00:43:15;;;;;;;18.83;8.70;;;;;;;7.00;100.00;101961.16;2090782;28;20184;-67
2023/12/09 00:44:17;;;;;;;18.13;9.47;;;;;;;7.04;100.00;101957.28;2097970;28;20189;-68
2023/12/09 00:45:17;;;;;;;14.27;8.82;;;;;;;7.04;100.00;101960.03;2091054;28;20211;-67
2023/12/09 00:46:18;;;;;;;17.50;9.17;;;;;;;7.04;100.00;101951.78;2096651;28;20189;-67
2023/12/09 00:47:18;;;;;;;16.70;8.77;;;;;;;7.03;100.00;101949.38;2098587;28;20194;-67
2023/12/09 00:48:19;;;;;;;16.33;8.43;;;;;;;7.07;100.00;101956.50;2094789;28;20192;-67
2023/12/09 00:49:19;;;;;;;16.77;8.37;;;;;;;7.06;100.00;101957.69;2089853;28;20220;-67
2023/12/09 00:50:20;;;;;;;18.47;9.30;;;;;;;7.00;100.00;101950.13;2090392;28;20191;-67
2023/12/09 00:51:20;;;;;;;18.37;9.57;;;;;;;7.00;100.00;101959.22;2090615;28;20696;-68
2023/12/09 00:52:21;;;;;;;17.37;9.30;;;;;;;7.05;100.00;101960.81;2090198;28;20586;-67
2023/12/09 00:53:22;;;;;;;16.67;8.63;;;;;;;7.11;100.00;101943.56;2090466;28;20191;-67
2023/12/09 00:54:22;;;;;;;18.80;9.10;;;;;;;6.99;100.00;101940.28;2095968;28;20202;-67
2023/12/09 00:55:23;;;;;;;16.57;9.97;;;;;;;6.91;100.00;101927.56;2098660;28;20604;-67
2023/12/09 00:56:23;;;;;;;18.83;9.63;;;;;;;7.08;100.00;101952.59;2095551;28;20660;-68
2023/12/09 00:57:24;;;;;;;15.53;8.63;;;;;;;7.08;100.00;101947.06;2092168;28;20221;-67
2023/12/09 00:58:24;;;;;;;16.67;9.10;;;;;;;6.72;100.00;101897.44;2098057;28;20844;-68
2023/12/09 00:59:25;;;;;;;19.73;9.13;;;;;;;6.77;100.00;101899.88;2089995;28;20839;-68
2023/12/09 01:00:26;;;;;;;15.60;8.83;;;;;;;6.94;100.00;101926.84;2097253;28;20567;-67
2023/12/09 01:01:26;;;;;;;18.30;9.80;;;;;;;7.13;100.00;101945.97;2097847;28;20267;-67
2023/12/09 01:02:27;;;;;;;17.93;9.23;;;;;;;7.12;100.00;101947.13;2098540;28;20203;-68
2023/12/09 01:03:28;;;;;;;18.13;8.88;;;;;;;7.08;100.00;101946.28;2094626;28;20333;-67
2023/12/09 01:04:28;;;;;;;17.97;9.67;;;;;;;7.09;100.00;101948.69;2090201;28;20231;-67
2023/12/09 01:05:29;;;;;;;14.90;9.20;;;;;;;7.03;100.00;101930.09;2090268;28;20184;-67
2023/12/09 01:06:29;;;;;;;18.60;9.47;;;;;;;7.12;100.00;101952.66;2090797;28;20240;-67
2023/12/09 01:07:30;;;;;;;16.57;8.93;;;;;;;7.13;100.00;101941.22;2098666;28;20253;-68
2023/12/09 01:08:30;;;;;;;17.53;9.13;;;;;;;7.13;100.00;101943.19;2091700;28;20257;-67
2023/12/09 01:09:31;;;;;;;19.37;9.93;;;;;;;7.15;100.00;101943.59;2095262;28;20310;-68
2023/12/09 01:10:31;;;;;;;16.20;9.07;;;;;;;7.15;100.00;101932.59;2094245;28;20673;-67
2023/12/09 01:11:32;;;;;;;17.60;9.83;;;;;;;7.13;100.00;101934.94;2092864;28;20704;-67
2023/12/09 01:12:32;;;;;;;18.80;8.60;;;;;;;7.10;100.00;101936.47;2096699;28;20186;-67
2023/12/09 01:13:33;;;;;;;16.77;8.60;;;;;;;7.12;100.00;101941.63;2090567;28;20180;-67
2023/12/09 01:14:34;;;;;;;16.93;9.73;;;;;;;7.18;100.00;101931.84;2098750;28;20239;-67
2023/12/09 01:15:34;;;;;;;15.23;8.23;;;;;;;7.18;100.00;101934.59;2097762;28;20192;-67
2023/12/09 01:16:35;;;;;;;16.23;9.33;;;;;;;7.18;100.00;101937.34;2098480;28;20238;-67
2023/12/09 01:17:35;;;;;;;16.23;8.70;;;;;;;7.20;100.00;101930.28;2093391;28;20267;-68
2023/12/09 01:18:36;;;;;;;15.53;8.43;;;;;;;7.23;100.00;101929.53;2097650;28;20259;-67
2023/12/09 01:19:36;;;;;;;16.43;9.10;;;;;;;7.25;100.00;101932.72;2101067;28;20673;-67
2023/12/09 01:20:37;;;;;;;16.63;8.77;;;;;;;7.18;100.00;101929.84;2091341;28;20231;-67
2023/12/09 01:21:37;;;;;;;14.03;8.67;;;;;;;7.15;100.00;101930.63;2098118;28;20228;-67
2023/12/09 01:22:38;;;;;;;17.73;8.87;;;;;;;6.99;100.00;101921.00;2097816;28;20427;-67
2023/12/09 01:23:39;;;;;;;17.20;9.63;;;;;;;7.06;100.00;101929.31;2091081;28;20200;-67
2023/12/09 01:24:40;;;;;;;15.00;9.87;;;;;;;7.03;100.00;101928.13;2095753;28;20442;-67
2023/12/09 01:25:40;;;;;;;15.93;8.37;;;;;;;6.98;100.00;101919.41;2098245;28;20518;-68
2023/12/09 01:26:41;;;;;;;19.10;9.67;;;;;;;6.59;100.00;101846.53;2095170;28;20197;-67
2023/12/09 01:27:41;;;;;;;20.07;10.10;;;;;;;7.09;100.00;101918.38;2090065;28;20237;-67
2023/12/09 01:28:42;;;;;;;16.63;8.87;;;;;;;7.09;100.00;101926.63;2090654;28;20186;-67
2023/12/09 01:29:43;;;;;;;15.97;8.70;;;;;;;7.08;100.00;101925.03;2097665;28;20203;-67
2023/12/09 01:30:43;;;;;;;16.98;9.52;;;;;;;7.02;100.00;101917.50;2090405;28;20643;-68
2023/12/09 01:31:44;;;;;;;15.43;9.60;;;;;;;7.06;100.00;101923.81;2089732;28;20193;-67
2023/12/09 01:32:44;;;;;;;17.43;8.20;;;;;;;7.02;100.00;101921.03;2089992;28;20192;-67
2023/12/09 01:33:45;;;;;;;15.67;9.10;;;;;;;6.99;100.00;101923.75;2090026;28;20214;-67
2023/12/09 01:34:45;;;;;;;15.33;8.87;;;;;;;6.83;100.00;101904.66;2092614;28;20564;-67
2023/12/09 01:35:46;;;;;;;15.60;8.67;;;;;;;7.06;100.00;101921.06;2096965;28;20652;-67
2023/12/09 01:36:47;;;;;;;14.43;8.70;;;;;;;7.12;100.00;101919.56;2089894;28;20217;-67
2023/12/09 01:37:47;;;;;;;17.03;9.27;;;;;;;7.18;100.00;101918.81;2098353;28;20183;-67
2023/12/09 01:38:48;;;;;;;16.17;8.57;;;;;;;7.19;100.00;101919.63;2098429;28;20189;-67
2023/12/09 01:39:48;;;;;;;16.53;8.47;;;;;;;7.19;100.00;101919.63;2097460;28;20271;-67
2023/12/09 01:40:53;;;;;;;16.03;9.13;;;;;;;6.40;100.00;101797.16;2093819;28;20198;-67
2023/12/09 01:41:54;;;;;;;15.40;9.07;;;;;;;7.19;100.00;101922.38;2093501;28;20246;-67
2023/12/09 01:42:54;;;;;;;17.37;8.80;;;;;;;7.11;100.00;101902.22;2098204;28;20708;-67
2023/12/09 01:43:55;;;;;;;17.33;9.70;;;;;;;6.94;100.00;101871.72;2096984;28;20673;-68
2023/12/09 01:44:55;;;;;;;15.63;9.13;;;;;;;7.20;100.00;101910.19;2097281;28;20201;-67
2023/12/09 01:46:06;;;;;;;15.03;8.53;;;;;;;6.83;100.00;101857.81;2090157;28;20173;-67
2023/12/09 01:47:07;;;;;;;15.38;8.05;;;;;;;6.40;100.00;101788.88;2089257;28;20165;-67
2023/12/09 01:48:08;;;;;;;19.37;8.97;;;;;;;7.20;100.00;101912.94;2090036;28;20273;-67
2023/12/09 01:49:10;;;;;;;13.97;7.87;;;;;;;7.19;100.00;101908.59;2095921;28;20244;-67
2023/12/09 01:50:10;;;;;;;16.98;8.60;;;;;;;6.49;100.00;101790.16;2093043;28;20221;-67
2023/12/09 01:51:13;;;;;;;17.57;8.63;;;;;;;7.18;100.00;101901.50;2093521;28;20192;-67
2023/12/09 01:52:14;;;;;;;15.55;8.18;;;;;;;7.10;100.00;101891.56;2097640;28;20645;-67
2023/12/09 01:53:15;;;;;;;16.65;9.07;;;;;;;7.24;100.00;101930.31;2096919;28;20210;-68
2023/12/09 01:54:16;;;;;;;19.58;9.95;;;;;;;7.22;100.00;101908.63;2089811;28;20198;-68
2023/12/09 01:55:16;;;;;;;18.40;8.93;;;;;;;7.21;100.00;101903.50;2090136;28;20193;-67
2023/12/09 01:56:17;;;;;;;15.83;9.10;;;;;;;7.24;100.00;101902.75;2097050;28;20272;-67
2023/12/09 01:57:18;;;;;;;15.57;8.35;;;;;;;7.24;100.00;101909.06;2098261;28;20623;-67
2023/12/09 01:58:19;;;;;;;14.50;8.70;;;;;;;7.18;100.00;101899.53;2092630;28;20182;-68
2023/12/09 01:59:20;;;;;;;13.73;8.27;;;;;;;7.26;100.00;101908.66;2089248;28;20261;-67
2023/12/09 02:00:21;;;;;;;18.77;8.95;;;;;;;7.08;100.00;101877.38;2091958;28;20572;-67
2023/12/09 02:01:24;;;;;;;17.03;9.00;;;;;;;7.21;100.00;101897.97;2097343;28;20248;-67
2023/12/09 02:02:24;;;;;;;15.27;8.90;;;;;;;7.26;100.00;101914.97;2097183;28;20277;-67
2023/12/09 02:03:25;;;;;;;17.07;9.03;;;;;;;7.28;100.00;101909.09;2090004;28;20418;-67
2023/12/09 02:04:26;;;;;;;15.70;8.60;;;;;;;7.30;100.00;101912.25;2096986;28;20205;-67
2023/12/09 02:05:27;;;;;;;16.53;9.17;;;;;;;7.28;100.00;101895.31;2092010;28;20661;-67
2023/12/09 02:06:27;;;;;;;18.00;8.93;;;;;;;7.31;100.00;101902.81;2089641;28;20816;-67
2023/12/09 02:07:28;;;;;;;17.47;9.67;;;;;;;7.34;100.00;101902.06;2089792;28;20673;-67
2023/12/09 02:08:28;;;;;;;15.60;8.17;;;;;;;7.35;100.00;101900.88;2092008;28;20176;-67
2023/12/09 02:09:29;;;;;;;14.67;8.43;;;;;;;7.34;100.00;101896.53;2096560;28;20179;-67
2023/12/09 02:10:30;;;;;;;14.97;9.20;;;;;;;7.31;100.00;101905.56;2089946;28;20662;-67
2023/12/09 02:11:31;;;;;;;16.70;8.70;;;;;;;7.34;100.00;101897.31;2089423;28;20206;-67
2023/12/09 02:12:36;;;;;;;16.83;9.17;;;;;;;7.39;100.00;101893.44;2089180;28;20209;-67
2023/12/09 02:13:54;;;;;;;17.20;8.70;;;;;;;7.31;100.00;101900.84;2095792;28;20530;-67
2023/12/09 02:15:22;;;;;;;11.87;7.50;;;;;;;7.28;100.00;101898.84;2090832;28;20924;-67
2023/12/09 02:16:30;;;;;;;16.03;9.77;;;;;;;6.62;100.00;101808.00;2091424;28;20440;-67
2023/12/09 02:17:43;;;;;;;19.20;8.80;;;;;;;7.22;100.00;101905.09;2098221;28;20477;-67
2023/12/09 02:18:45;;;;;;;14.90;8.37;;;;;;;6.91;100.00;101855.94;2097632;28;20842;-67
2023/12/09 02:19:46;;;;;;;15.90;8.70;;;;;;;7.29;100.00;101905.16;2092927;28;20428;-67
2023/12/09 02:20:47;;;;;;;15.73;8.90;;;;;;;7.31;100.00;101900.06;2097994;28;20436;-67
2023/12/09 02:22:01;;;;;;;15.37;8.50;;;;;;;7.29;100.00;101896.88;2091230;28;20477;-68
2023/12/09 02:23:09;;;;;;;13.60;7.60;;;;;;;7.26;100.00;101901.19;2089526;28;20199;-67
2023/12/09 02:24:09;;;;;;;13.57;8.00;;;;;;;7.30;100.00;101901.22;2089614;28;20875;-67
2023/12/09 02:25:10;;;;;;;15.93;7.90;;;;;;;7.28;100.00;101906.34;2089566;28;20460;-67
2023/12/09 02:26:20;;;;;;;17.67;8.73;;;;;;;7.25;100.00;101896.06;2089478;28;20635;-67
2023/12/09 02:27:27;;;;;;;11.77;7.23;;;;;;;7.27;100.00;101900.03;2089158;28;20193;-67
2023/12/09 02:28:29;;;;;;;16.05;7.53;;;;;;;7.28;100.00;101898.84;2089677;28;20453;-67
2023/12/09 02:29:38;;;;;;;15.27;8.20;;;;;;;7.26;100.00;101898.44;2089125;28;20415;-67
2023/12/09 02:31:14;;;;;;;13.17;7.97;;;;;;;7.24;100.00;101898.03;2089715;28;20398;-67
2023/12/09 02:32:19;;;;;;;15.57;9.27;;;;;;;6.69;100.00;101805.34;2089165;28;20438;-67
2023/12/09 02:33:22;;;;;;;17.70;7.43;;;;;;;6.72;100.00;101812.81;2089618;28;20514;-67
2023/12/09 02:34:24;;;;;;;13.30;8.23;;;;;;;6.60;100.00;101793.00;2089473;28;20906;-67
2023/12/09 02:35:26;;;;;;;15.60;8.27;;;;;;;7.24;100.00;101897.22;2092896;28;20451;-67
2023/12/09 02:36:28;;;;;;;15.33;7.67;;;;;;;7.03;100.00;101864.72;2100148;28;20455;-67
2023/12/09 02:37:30;;;;;;;14.90;8.27;;;;;;;6.88;100.00;101846.44;2103425;28;20429;-68
2023/12/09 02:38:32;;;;;;;16.97;8.33;;;;;;;7.21;100.00;101898.78;2089881;28;20426;-67
2023/12/09 02:39:33;;;;;;;15.50;8.20;;;;;;;7.10;100.00;101875.84;2097509;28;20457;-67
2023/12/09 02:40:35;;;;;;;13.63;7.43;;;;;;;7.21;100.00;101898.78;2096549;28;20451;-67
2023/12/09 02:41:36;;;;;;;15.73;8.33;;;;;;;7.12;100.00;101884.50;2090633;28;20506;-67
2023/12/09 02:42:41;;;;;;;14.57;8.83;;;;;;;7.19;100.00;101903.91;2094867;28;20546;-67
2023/12/09 02:43:44;;;;;;;14.43;7.73;;;;;;;7.11;100.00;101882.94;2097100;28;20889;-67
2023/12/09 02:44:45;;;;;;;15.20;8.30;;;;;;;7.20;100.00;101913.75;2096675;28;20763;-67
2023/12/09 02:45:46;;;;;;;14.70;8.00;;;;;;;7.18;100.00;101901.50;2089520;28;20420;-67
2023/12/09 02:46:54;;;;;;;16.40;8.90;;;;;;;7.09;100.00;101882.53;2089443;28;20181;-67
2023/12/09 02:47:55;;;;;;;15.63;8.37;;;;;;;7.18;100.00;101896.00;2090444;28;20166;-67
2023/12/09 02:48:55;;;;;;;13.17;8.23;;;;;;;7.15;100.00;101894.78;2097868;28;20946;-67
2023/12/09 02:49:56;;;;;;;13.77;7.80;;;;;;;7.12;100.00;101903.81;2089212;28;20206;-67
2023/12/09 02:50:56;;;;;;;13.93;7.80;;;;;;;7.09;100.00;101896.31;2096293;28;20286;-67
2023/12/09 02:51:56;;;;;;;19.40;7.83;;;;;;;7.11;100.00;101898.66;2091934;28;20188;-67
2023/12/09 02:52:57;;;;;;;16.27;8.20;;;;;;;7.15;100.00;101900.31;2093567;28;20195;-67
2023/12/09 02:53:57;;;;;;;16.60;8.13;;;;;;;7.17;100.00;101897.94;2094776;28;20202;-67
2023/12/09 02:54:58;;;;;;;15.20;7.90;;;;;;;7.17;100.00;101899.94;2090512;28;20187;-67
2023/12/09 02:55:59;;;;;;;15.77;8.03;;;;;;;7.14;100.00;101895.97;2097299;28;20178;-67
2023/12/09 02:56:59;;;;;;;16.77;8.83;;;;;;;7.09;100.00;101898.25;2089739;28;20237;-67
2023/12/09 02:57:59;;;;;;;13.70;7.97;;;;;;;7.07;100.00;101897.84;2096678;28;20201;-67
2023/12/09 02:59:00;;;;;;;14.40;8.03;;;;;;;7.03;100.00;101897.78;2091617;28;20301;-67
2023/12/09 03:00:00;;;;;;;14.83;8.03;;;;;;;7.02;100.00;101895.44;2092871;28;20656;-67
2023/12/09 03:01:01;;;;;;;12.70;7.63;;;;;;;6.95;100.00;101890.63;2097157;28;20711;-67
2023/12/09 03:02:02;;;;;;;15.93;8.90;;;;;;;7.04;100.00;101896.66;2097184;28;20175;-67
2023/12/09 03:03:02;;;;;;;13.50;8.43;;;;;;;6.94;100.00;101877.22;2097597;28;20280;-67
2023/12/09 03:04:03;;;;;;;13.47;8.37;;;;;;;6.88;100.00;101878.75;2097726;28;20174;-67
2023/12/09 03:05:03;;;;;;;14.77;7.77;;;;;;;7.01;100.00;101893.81;2089706;28;20207;-67
2023/12/09 03:06:04;;;;;;;17.33;9.07;;;;;;;6.09;100.00;101757.03;2089389;28;20240;-67
2023/12/09 03:07:06;;;;;;;14.98;8.60;;;;;;;6.98;100.00;101903.66;2093459;28;20198;-67
2023/12/09 03:08:06;;;;;;;13.97;7.53;;;;;;;6.96;100.00;101897.72;2096962;28;20271;-67
2023/12/09 03:09:09;;;;;;;14.93;7.67;;;;;;;7.00;100.00;101904.09;2097426;28;20217;-67
2023/12/09 03:10:09;;;;;;;12.10;7.55;;;;;;;7.02;100.00;101901.72;2095951;28;20607;-67
2023/12/09 03:11:10;;;;;;;13.67;8.13;;;;;;;7.00;100.00;101903.28;2097717;28;20270;-67
2023/12/09 03:12:10;;;;;;;13.60;7.87;;;;;;;6.96;100.00;101905.19;2097356;28;20251;-67
2023/12/09 03:13:11;;;;;;;18.33;9.07;;;;;;;6.90;100.00;101901.19;2090842;28;20232;-67
2023/12/09 03:14:12;;;;;;;14.93;8.23;;;;;;;6.92;100.00;101907.13;2094639;28;20241;-67
2023/12/09 03:15:12;;;;;;;11.97;7.33;;;;;;;6.87;100.00;101902.75;2093444;28;20575;-67
2023/12/09 03:16:13;;;;;;;17.17;9.27;;;;;;;6.83;100.00;101890.09;2092010;28;20212;-67
2023/12/09 03:17:13;;;;;;;16.90;9.00;;;;;;;6.80;100.00;101888.88;2095883;28;20767;-67
2023/12/09 03:18:14;;;;;;;19.80;9.53;;;;;;;6.88;100.00;101907.06;2089284;28;20192;-67
2023/12/09 03:19:15;;;;;;;14.57;8.05;;;;;;;6.86;100.00;101912.19;2089042;28;20650;-67
2023/12/09 03:20:17;;;;;;;19.00;9.33;;;;;;;6.70;100.00;101875.78;2089735;28;20569;-67
2023/12/09 03:21:17;;;;;;;15.30;8.25;;;;;;;6.90;100.00;101907.50;2089300;28;20184;-67
2023/12/09 03:22:18;;;;;;;16.90;9.43;;;;;;;6.91;100.00;101903.56;2093797;28;20496;-68
2023/12/09 03:23:18;;;;;;;16.23;9.00;;;;;;;6.89;100.00;101908.69;2097349;28;20239;-67
2023/12/09 03:24:19;;;;;;;15.90;8.93;;;;;;;6.87;100.00;101901.97;2093979;28;20662;-67
2023/12/09 03:25:19;;;;;;;15.57;9.50;;;;;;;6.82;100.00;101914.09;2090143;28;20200;-67
2023/12/09 03:26:20;;;;;;;16.43;8.57;;;;;;;6.54;100.00;101864.19;2097622;28;20182;-67
2023/12/09 03:27:21;;;;;;;15.03;8.23;;;;;;;6.79;100.00;101892.00;2089241;28;20628;-67
2023/12/09 03:28:21;;;;;;;16.33;8.60;;;;;;;6.81;100.00;101914.50;2102874;28;20196;-68
2023/12/09 03:29:22;;;;;;;15.97;8.60;;;;;;;6.82;100.00;101916.06;2094219;28;20226;-67
2023/12/09 03:30:22;;;;;;;15.13;7.77;;;;;;;6.81;100.00;101906.22;2097634;28;20213;-67
2023/12/09 03:31:23;;;;;;;16.20;8.60;;;;;;;6.88;100.00;101911.81;2099799;28;20330;-67
2023/12/09 03:32:23;;;;;;;13.47;8.07;;;;;;;6.55;100.00;101874.03;2091935;28;20565;-67
2023/12/09 03:33:24;;;;;;;16.33;8.10;;;;;;;6.85;100.00;101912.56;2105019;28;20179;-67
2023/12/09 03:34:24;;;;;;;14.83;8.70;;;;;;;6.01;100.00;101791.13;2089338;28;20184;-67
2023/12/09 03:35:25;;;;;;;16.40;8.37;;;;;;;6.59;100.00;101876.81;2096464;28;20575;-67
2023/12/09 03:36:25;;;;;;;14.47;8.33;;;;;;;6.81;100.00;101917.25;2091120;28;20279;-67
2023/12/09 03:37:26;;;;;;;15.53;7.93;;;;;;;6.19;100.00;101818.88;2089100;28;20211;-68
2023/12/09 03:38:27;;;;;;;18.13;8.98;;;;;;;6.80;100.00;101921.16;2088660;28;20187;-67
2023/12/09 03:39:27;;;;;;;15.83;9.10;;;;;;;6.84;100.00;101922.00;2088512;28;20604;-67
2023/12/09 03:40:28;;;;;;;19.13;9.37;;;;;;;6.80;100.00;101924.72;2094543;28;20180;-67
2023/12/09 03:41:28;;;;;;;19.83;9.23;;;;;;;6.79;100.00;101914.88;2097269;28;20209;-67
2023/12/09 03:42:28;;;;;;;17.07;9.33;;;;;;;6.75;100.00;101911.25;2097294;28;20258;-68
2023/12/09 03:43:29;;;;;;;17.03;9.00;;;;;;;6.73;100.00;101915.56;2090698;28;20259;-67
2023/12/09 03:44:30;;;;;;;16.43;9.20;;;;;;;5.85;100.00;101787.75;2088797;28;20188;-67
2023/12/09 03:45:31;;;;;;;17.05;9.20;;;;;;;6.71;100.00;101923.41;2089146;28;20666;-67
2023/12/09 03:46:31;;;;;;;16.40;8.80;;;;;;;6.76;100.00;101925.84;2088939;28;20306;-67
2023/12/09 03:47:32;;;;;;;16.30;8.70;;;;;;;6.55;100.00;101895.25;2090612;28;20555;-67
2023/12/09 03:48:33;;;;;;;17.27;9.17;;;;;;;6.32;100.00;101865.09;2097249;28;20545;-67
2023/12/09 03:49:33;;;;;;;14.23;8.87;;;;;;;6.58;100.00;101925.63;2096841;28;20176;-67
2023/12/09 03:50:34;;;;;;;18.23;8.93;;;;;;;6.58;100.00;101925.63;2097391;28;20498;-67
2023/12/09 03:51:34;;;;;;;15.10;8.93;;;;;;;6.57;100.00;101948.03;2090700;28;20284;-67
2023/12/09 03:52:35;;;;;;;13.47;8.87;;;;;;;6.60;100.00;101927.97;2093180;28;20566;-67
2023/12/09 03:53:35;;;;;;;16.43;9.67;;;;;;;6.54;100.00;101921.22;2097102;28;20191;-67
2023/12/09 03:54:37;;;;;;;14.60;8.37;;;;;;;5.74;100.00;101803.31;2099511;28;20175;-67
2023/12/09 03:55:38;;;;;;;16.60;8.98;;;;;;;6.57;100.00;101920.47;2103085;28;20198;-67
2023/12/09 03:56:38;;;;;;;20.33;9.10;;;;;;;6.60;100.00;101928.78;2089245;28;20173;-67
2023/12/09 03:57:39;;;;;;;17.67;8.90;;;;;;;6.59;100.00;101929.16;2097370;28;20206;-67
2023/12/09 03:58:40;;;;;;;15.90;9.43;;;;;;;6.63;100.00;101935.50;2097099;28;20224;-67
2023/12/09 03:59:41;;;;;;;18.50;9.52;;;;;;;6.62;100.00;101933.94;2102680;28;20183;-67
2023/12/09 04:00:41;;;;;;;16.17;8.40;;;;;;;6.58;100.00;101922.06;2096387;28;20285;-67
2023/12/09 04:01:51;;;;;;;14.47;7.97;;;;;;;6.64;100.00;101931.56;2091799;28;20207;-67
2023/12/09 04:02:52;;;;;;;15.63;8.63;;;;;;;6.65;100.00;101924.91;2097232;28;20195;-67
2023/12/09 04:03:53;;;;;;;19.50;9.77;;;;;;;6.64;100.00;101923.31;2095263;28;20168;-67
2023/12/09 04:04:54;;;;;;;14.57;7.70;;;;;;;6.62;100.00;101925.66;2088726;28;20531;-67
2023/12/09 04:05:54;;;;;;;19.87;8.83;;;;;;;6.65;100.00;101931.22;2089280;28;20279;-67
2023/12/09 04:06:55;;;;;;;16.07;9.00;;;;;;;6.64;100.00;101928.81;2088607;28;20569;-67
2023/12/09 04:07:55;;;;;;;16.77;9.80;;;;;;;6.62;100.00;101934.69;2102031;28;20211;-68
2023/12/09 04:08:56;;;;;;;15.73;9.00;;;;;;;6.62;100.00;101937.44;2100138;28;20192;-67
2023/12/09 04:09:56;;;;;;;15.40;8.50;;;;;;;6.66;100.00;101938.28;2096088;28;20215;-67
2023/12/09 04:10:57;;;;;;;15.17;8.80;;;;;;;6.66;100.00;101932.78;2094356;28;20752;-67
2023/12/09 04:11:57;;;;;;;16.47;8.83;;;;;;;6.65;100.00;101933.97;2089268;28;20634;-67
2023/12/09 04:12:58;;;;;;;17.00;8.83;;;;;;;6.68;100.00;101932.41;2096427;28;20712;-67
2023/12/09 04:13:58;;;;;;;17.00;9.53;;;;;;;6.72;100.00;101928.53;2097229;28;20605;-68
2023/12/09 04:14:59;;;;;;;17.83;9.27;;;;;;;6.74;100.00;101939.19;2097177;28;20627;-67
2023/12/09 04:16:00;;;;;;;16.20;9.33;;;;;;;6.77;100.00;101941.19;2091343;28;20188;-67
2023/12/09 04:17:01;;;;;;;18.88;9.63;;;;;;;6.74;100.00;101939.19;2088960;28;20194;-67
2023/12/09 04:18:01;;;;;;;16.97;9.27;;;;;;;6.73;100.00;101943.91;2092218;28;20192;-67
2023/12/09 04:19:02;;;;;;;16.70;8.93;;;;;;;6.76;100.00;101943.16;2095097;28;20509;-67
2023/12/09 04:20:05;;;;;;;17.23;9.43;;;;;;;6.73;100.00;101935.66;2093460;28;20183;-67
2023/12/09 04:21:06;;;;;;;16.52;8.77;;;;;;;6.73;100.00;101937.59;2088199;28;20173;-67
2023/12/09 04:22:06;;;;;;;17.40;9.17;;;;;;;6.75;100.00;101938.00;2088477;28;20212;-67
2023/12/09 04:23:07;;;;;;;15.70;8.97;;;;;;;6.77;100.00;101941.19;2095897;28;20183;-67
2023/12/09 04:24:07;;;;;;;16.50;8.67;;;;;;;6.80;100.00;101940.44;2097043;28;20199;-67
2023/12/09 04:25:08;;;;;;;17.37;8.80;;;;;;;6.78;100.00;101940.03;2092679;28;20218;-67
2023/12/09 04:26:09;;;;;;;18.43;9.47;;;;;;;6.63;100.00;101922.53;2091198;28;20184;-67
2023/12/09 04:27:09;;;;;;;15.23;8.77;;;;;;;6.78;100.00;101937.28;2102560;28;20484;-68
2023/12/09 04:28:11;;;;;;;16.23;8.90;;;;;;;6.76;100.00;101934.09;2104845;28;20604;-67
2023/12/09 04:29:12;;;;;;;16.88;9.10;;;;;;;6.77;100.00;101932.94;2088705;28;20779;-67
2023/12/09 04:30:12;;;;;;;16.00;9.30;;;;;;;6.76;100.00;101940.41;2096620;28;20569;-67
2023/12/09 04:31:13;;;;;;;17.37;8.57;;;;;;;6.79;100.00;101936.09;2097026;28;20256;-67
2023/12/09 04:32:14;;;;;;;18.47;9.30;;;;;;;6.81;100.00;101940.06;2091395;28;20250;-68
2023/12/09 04:33:14;;;;;;;18.60;8.83;;;;;;;6.86;100.00;101941.69;2088695;28;20220;-67
2023/12/09 04:34:14;;;;;;;16.40;8.97;;;;;;;6.88;100.00;101933.84;2088700;28;20716;-67
2023/12/09 04:35:15;;;;;;;19.17;9.03;;;;;;;6.92;100.00;101954.00;2090146;28;20176;-67
2023/12/09 04:36:16;;;;;;;18.63;9.17;;;;;;;6.95;100.00;101943.00;2096201;28;20183;-67
2023/12/09 04:37:16;;;;;;;16.27;8.67;;;;;;;6.92;100.00;101934.69;2097300;28;20179;-67
2023/12/09 04:38:17;;;;;;;21.97;9.90;;;;;;;6.93;100.00;101939.03;2089923;28;20188;-67
2023/12/09 04:39:18;;;;;;;20.20;9.70;;;;;;;6.91;100.00;101941.34;2094107;28;20179;-67
2023/12/09 04:40:18;;;;;;;17.07;8.97;;;;;;;6.93;100.00;101933.53;2096792;28;20191;-67
2023/12/09 04:41:19;;;;;;;15.00;7.87;;;;;;;6.93;100.00;101939.03;2093583;28;20180;-67
2023/12/09 04:42:19;;;;;;;16.37;8.83;;;;;;;6.93;100.00;101939.81;2088403;28;20176;-67